Hawks, Michigan
Current Conditions -  °F | °C
As of 4:25 AM on Thursday 23 Oct 2014 (Local Time) from KPZQ Reporting Station
Clear Clear  
Wind Chill: 34°   Ceiling: Unl
Heat Index: 34°   Visibility: 10mi
Dew Point: 32°   Wind: 0mph
Humidity: 93%   Direction: 350°N
Pressure: 30.27"   Gusts: NA
Location:  45.3°N, 83.89°W
Report Text: KPZQ 230825Z AUTO 35000KT 10SM CLR 01/00 A3027 RMK AO2
Loading
Personal Weather Stations






























Interactive Weather Map New forecast layout! Learn more

10-Day Weather Forecast

Advertisements
Track Severe Weather on mobile